Time;durP1;ratioP1;P1;durP2;ratioP2;P2;SDS_P1;SDS_P2;PMS_P1;PMS_P2;Temp;Humidity;BMP_temperature;BMP_pressure;BME280_temperature;BME280_humidity;BME280_pressure;Samples;Min_cycle;Max_cycle;Signal;HPM_P1;HPM_P2
2022/01/12 00:01:14;;;;;;;11.18;6.55;;;;;;;5.50;38.46;100631.38;1661858;86;21097;-63
2022/01/12 00:03:43;;;;;;;11.40;4.87;;;;;;;5.50;38.33;100627.50;1656071;85;21038;-63
2022/01/12 00:06:12;;;;;;;10.95;5.15;;;;;;;5.45;38.32;100633.55;1648100;86;22112;-63
2022/01/12 00:08:40;;;;;;;9.75;4.58;;;;;;;5.36;38.36;100628.75;1650526;85;21229;-65
2022/01/12 00:11:07;;;;;;;7.35;4.42;;;;;;;5.44;38.32;100639.69;1648674;86;21114;-63
2022/01/12 00:13:34;;;;;;;8.85;4.83;;;;;;;5.54;38.18;100633.20;1646622;86;20982;-69
2022/01/12 00:16:03;;;;;;;9.33;4.75;;;;;;;5.47;38.42;100636.02;1646537;86;21060;-62
2022/01/12 00:18:31;;;;;;;9.55;5.05;;;;;;;5.35;38.49;100631.48;1650185;85;21046;-68
2022/01/12 00:20:59;;;;;;;9.95;6.00;;;;;;;5.48;38.43;100635.86;1646416;86;22403;-63
2022/01/12 00:23:26;;;;;;;11.22;5.90;;;;;;;5.12;38.95;100629.70;1648473;86;20963;-64
2022/01/12 00:25:59;;;;;;;14.47;7.72;;;;;;;5.16;38.71;100627.17;1646056;85;21063;-67
2022/01/12 00:34:00;;;;;;;10.60;5.60;;;;;;;5.02;38.75;100632.28;1648755;86;22103;-63
2022/01/12 00:36:28;;;;;;;8.93;4.97;;;;;;;4.83;39.02;100639.56;1645900;86;21008;-63
2022/01/12 00:38:55;;;;;;;9.58;5.28;;;;;;;4.45;39.33;100633.91;1638591;86;21438;-61
2022/01/12 00:41:22;;;;;;;8.70;5.15;;;;;;;4.62;39.26;100633.26;1647286;85;21065;-61
2022/01/12 00:43:56;;;;;;;8.75;4.87;;;;;;;4.69;39.25;100639.16;1644750;85;21682;-61
2022/01/12 00:46:19;;;;;;;9.13;4.58;;;;;;;4.51;39.50;100641.13;1648769;85;22622;-61
2022/01/12 00:48:45;;;;;;;9.18;4.72;;;;;;;4.66;39.53;100640.70;1647677;86;21030;-62
2022/01/12 00:51:12;;;;;;;11.60;4.67;;;;;;;4.59;39.50;100647.72;1648189;86;21497;-66
2022/01/12 00:53:41;;;;;;;11.40;5.47;;;;;;;4.64;39.42;100648.13;1648370;86;21493;-62
2022/01/12 00:56:08;;;;;;;7.92;4.20;;;;;;;4.55;39.34;100650.71;1609720;88;21171;-63
2022/01/12 00:58:34;;;;;;;9.45;4.50;;;;;;;4.57;39.27;100642.34;1648108;85;22280;-62
2022/01/12 01:01:02;;;;;;;8.90;4.53;;;;;;;4.63;38.96;100643.92;1648623;86;20986;-62
2022/01/12 01:03:30;;;;;;;7.83;4.30;;;;;;;4.78;38.89;100642.23;1649693;85;21063;-63
2022/01/12 01:05:57;;;;;;;9.98;4.83;;;;;;;4.99;38.50;100644.66;1646742;85;20927;-64
2022/01/12 01:08:26;;;;;;;9.70;4.72;;;;;;;4.90;38.55;100646.30;1647004;86;21078;-63
2022/01/12 01:10:56;;;;;;;9.88;4.70;;;;;;;4.66;38.80;100649.30;1642928;86;22374;-65
2022/01/12 01:13:28;;;;;;;14.10;5.40;;;;;;;5.12;38.27;100646.49;1651035;85;21003;-63
2022/01/12 01:16:06;;;;;;;10.35;5.12;;;;;;;4.74;38.69;100644.27;1648748;86;21035;-70
2022/01/12 01:26:46;;;;;;;7.33;3.42;;;;;;;4.57;38.57;100656.06;1650219;85;20900;-63
2022/01/12 01:29:13;;;;;;;8.25;4.20;;;;;;;4.36;38.77;100665.21;1648275;86;21105;-65
2022/01/12 01:31:43;;;;;;;8.15;4.08;;;;;;;4.33;38.83;100671.11;1649590;86;21165;-63
2022/01/12 01:34:11;;;;;;;9.30;3.90;;;;;;;4.46;38.60;100661.34;1650473;86;21528;-62
2022/01/12 01:36:44;;;;;;;10.95;5.03;;;;;;;4.23;39.08;100668.97;1649490;86;21860;-65
2022/01/12 01:39:13;;;;;;;7.83;3.75;;;;;;;4.25;39.09;100670.96;1648729;85;21122;-63
2022/01/12 01:41:45;;;;;;;7.85;4.30;;;;;;;4.21;38.98;100672.17;1649562;86;21129;-63
2022/01/12 01:54:58;;;;;;;9.03;3.75;;;;;;;4.76;38.06;100673.82;1649856;86;21090;-62
2022/01/12 01:57:25;;;;;;;7.10;3.37;;;;;;;4.67;37.89;100672.87;1649758;86;21023;-65
2022/01/12 01:59:53;;;;;;;7.35;4.12;;;;;;;4.73;37.93;100676.66;1648834;86;21163;-64
2022/01/12 02:02:22;;;;;;;6.92;3.70;;;;;;;4.83;37.87;100673.14;1648834;86;22026;-67
2022/01/12 02:04:50;;;;;;;6.60;2.75;;;;;;;5.05;37.63;100672.06;1652208;85;21639;-63
2022/01/12 02:07:17;;;;;;;6.75;4.15;;;;;;;5.12;37.21;100674.44;1655656;85;21098;-64
2022/01/12 02:09:44;;;;;;;7.58;3.85;;;;;;;5.04;37.14;100673.02;1646976;86;21126;-62
2022/01/12 02:12:24;;;;;;;;;;;;;;;5.04;37.18;100682.06;1655180;85;20907;-63
2022/01/12 02:14:51;;;;;;;8.98;5.28;;;;;;;4.91;37.50;100689.25;1654130;85;21150;-64
2022/01/12 02:17:23;;;;;;;8.28;3.77;;;;;;;4.84;37.78;100689.45;1653916;86;21027;-62
2022/01/12 02:20:24;;;;;;;7.53;4.08;;;;;;;4.96;37.65;100689.66;1651931;85;22177;-63
2022/01/12 02:36:28;;;;;;;7.00;4.20;;;;;;;4.55;38.30;100703.16;1598983;88;20982;-68
2022/01/12 02:41:40;;;;;;;8.78;4.53;;;;;;;3.89;38.78;100709.23;1652148;86;21124;-63
2022/01/12 02:54:50;;;;;;;8.75;4.25;;;;;;;4.07;38.21;100715.43;1654192;86;21151;-62
2022/01/12 02:57:17;;;;;;;6.90;3.85;;;;;;;4.25;38.32;100716.94;1645146;85;21015;-64
2022/01/12 03:00:19;;;;;;;7.67;4.08;;;;;;;4.12;38.32;100711.16;1651764;85;21090;-62
2022/01/12 03:04:59;;;;;;;8.35;3.87;;;;;;;4.15;38.03;100712.20;1654035;85;21006;-62
2022/01/12 03:07:17;;;;;;;6.67;3.50;;;;;;;4.01;38.08;100716.41;1654937;85;21095;-62
2022/01/12 03:09:44;;;;;;;11.48;5.03;;;;;;;4.07;38.05;100719.77;1654887;85;21030;-62
2022/01/12 03:12:12;;;;;;;8.78;4.50;;;;;;;4.05;37.98;100718.63;1643159;85;21011;-63
2022/01/12 03:14:44;;;;;;;8.93;4.25;;;;;;;4.18;37.99;100714.52;1654832;86;21015;-64
2022/01/12 03:17:11;;;;;;;10.55;5.00;;;;;;;4.12;37.69;100718.42;1654285;85;21079;-64
2022/01/12 03:19:40;;;;;;;7.75;4.42;;;;;;;4.02;37.71;100715.01;1653142;86;22481;-63
2022/01/12 03:22:07;;;;;;;9.65;4.05;;;;;;;3.81;37.85;100722.77;1652999;86;21010;-68
2022/01/12 03:24:34;;;;;;;8.55;4.42;;;;;;;3.48;38.33;100721.20;1653397;85;21149;-63
2022/01/12 03:27:03;;;;;;;12.13;5.62;;;;;;;3.26;38.65;100723.89;1654111;86;21142;-64
2022/01/12 03:29:31;;;;;;;9.78;4.28;;;;;;;3.33;38.85;100730.19;1651939;86;21014;-65
2022/01/12 03:31:59;;;;;;;8.53;4.67;;;;;;;3.25;38.84;100717.92;1653349;85;21615;-63
2022/01/12 03:34:31;;;;;;;11.05;5.08;;;;;;;3.08;39.05;100732.17;1653186;86;20976;-63
2022/01/12 03:39:42;;;;;;;10.40;4.80;;;;;;;3.54;38.82;100743.10;1648889;85;21125;-70
2022/01/12 03:42:10;;;;;;;12.73;5.05;;;;;;;2.82;39.57;100735.53;1652528;85;20952;-63
2022/01/12 03:44:39;;;;;;;12.88;5.65;;;;;;;2.74;39.85;100743.52;1652113;85;21588;-61
2022/01/12 03:47:08;;;;;;;11.95;4.50;;;;;;;2.92;39.88;100735.63;1652972;85;20952;-68
2022/01/12 03:49:41;;;;;;;10.58;5.28;;;;;;;3.21;39.45;100738.91;1654015;86;20959;-62
2022/01/12 03:52:10;;;;;;;8.53;3.70;;;;;;;3.38;39.14;100735.80;1650113;86;21014;-62
2022/01/12 03:54:38;;;;;;;10.55;4.45;;;;;;;3.30;38.90;100735.61;1654905;86;21585;-62
2022/01/12 03:57:07;;;;;;;9.90;4.28;;;;;;;3.33;39.01;100734.05;1651566;85;21161;-66
2022/01/12 03:59:34;;;;;;;9.08;5.12;;;;;;;3.37;38.95;100734.99;1653536;86;21267;-68
2022/01/12 04:02:01;;;;;;;10.53;4.95;;;;;;;3.19;38.98;100740.34;1734576;79;21022;-62
2022/01/12 04:04:36;;;;;;;11.05;5.83;;;;;;;3.51;38.86;100739.00;1757148;81;21432;-62
2022/01/12 04:09:45;;;;;;;9.70;4.83;;;;;;;3.32;38.93;100740.16;1744853;81;21198;-64
2022/01/12 04:12:12;;;;;;;8.85;4.65;;;;;;;3.63;38.25;100739.75;1731550;81;21391;-64
2022/01/12 04:14:39;;;;;;;8.75;4.70;;;;;;;3.59;38.10;100742.24;1751840;81;21519;-70
2022/01/12 04:17:06;;;;;;;9.05;4.03;;;;;;;3.65;38.00;100743.85;1749990;81;20980;-63
2022/01/12 04:19:35;;;;;;;9.23;4.75;;;;;;;3.67;37.84;100746.29;1750917;80;21491;-69
2022/01/12 04:23:16;;;;;;;9.53;3.87;;;;;;;3.43;37.82;100750.41;1757922;80;21164;-64
2022/01/12 04:24:35;;;;;;;8.88;4.85;;;;;;;3.56;37.87;100743.77;1754522;80;20923;-63
2022/01/12 04:27:02;;;;;;;9.10;4.78;;;;;;;3.76;37.74;100747.31;1758104;80;21045;-67
2022/01/12 04:29:30;;;;;;;11.50;5.17;;;;;;;3.77;37.67;100744.59;1756972;81;21586;-70
2022/01/12 04:31:57;;;;;;;8.78;4.37;;;;;;;3.71;37.72;100755.87;1748886;80;21125;-63
2022/01/12 04:34:23;;;;;;;6.65;3.92;;;;;;;3.62;37.89;100753.59;1751297;80;21127;-63
2022/01/12 04:36:50;;;;;;;9.45;5.03;;;;;;;3.78;37.60;100750.09;1746760;81;21015;-63
2022/01/12 04:39:19;;;;;;;9.05;4.90;;;;;;;3.61;37.56;100750.68;1756080;80;20981;-67
2022/01/12 04:41:46;;;;;;;8.65;4.00;;;;;;;3.55;37.83;100751.98;1750101;80;21072;-65
2022/01/12 04:44:17;;;;;;;8.38;3.80;;;;;;;3.52;37.92;100752.70;1730517;80;21070;-62
2022/01/12 04:47:02;;;;;;;8.48;4.25;;;;;;;3.57;37.82;100756.55;1745515;81;27205;-64
2022/01/12 04:49:47;;;;;;;9.73;4.58;;;;;;;3.32;38.08;100757.72;1730576;81;20932;-63
2022/01/12 04:51:57;;;;;;;10.58;4.25;;;;;;;3.32;38.09;100753.85;1744012;81;21007;-61
2022/01/12 04:54:24;;;;;;;8.63;4.10;;;;;;;3.33;37.84;100754.66;1745337;81;22482;-62
2022/01/12 04:56:51;;;;;;;12.60;5.47;;;;;;;3.36;37.48;100757.81;1745788;81;21105;-62
2022/01/12 04:59:18;;;;;;;8.48;4.80;;;;;;;3.36;37.20;100761.68;1747598;81;21219;-61
2022/01/12 05:01:52;;;;;;;7.35;4.35;;;;;;;2.80;37.11;100765.72;1739498;81;21524;-61
2022/01/12 05:12:44;;;;;;;7.47;3.72;;;;;;;2.62;37.31;100774.90;1737220;81;21619;-63
2022/01/12 05:15:13;;;;;;;6.70;3.42;;;;;;;2.25;37.43;100785.89;1707366;82;21062;-63
2022/01/12 05:17:36;;;;;;;8.65;3.20;;;;;;;2.12;37.57;100787.27;1689195;83;20997;-63
2022/01/12 05:20:04;;;;;;;7.22;3.62;;;;;;;2.06;37.61;100788.56;1701531;82;21494;-67
2022/01/12 05:22:31;;;;;;;8.75;4.33;;;;;;;1.94;37.65;100793.34;1701981;82;20986;-76
2022/01/12 05:25:00;;;;;;;14.20;5.15;;;;;;;1.92;37.73;100793.91;1704194;82;21164;-65
2022/01/12 05:27:28;;;;;;;10.63;5.40;;;;;;;1.91;37.78;100799.98;1671240;83;21034;-64
2022/01/12 05:29:54;;;;;;;11.83;6.22;;;;;;;1.88;37.79;100802.78;1677407;85;21505;-63
2022/01/12 05:32:24;;;;;;;9.13;5.20;;;;;;;1.70;37.84;100802.38;1739648;81;21570;-62
2022/01/12 05:34:50;;;;;;;10.70;4.65;;;;;;;1.73;37.74;100798.77;1705080;82;20948;-70
2022/01/12 05:37:17;;;;;;;10.00;5.22;;;;;;;1.49;38.11;100805.23;1707010;82;21116;-63
2022/01/12 05:39:46;;;;;;;8.75;4.75;;;;;;;1.44;38.09;100806.39;1682077;83;21038;-62
2022/01/12 05:42:13;;;;;;;8.60;4.35;;;;;;;1.18;38.09;100818.52;1717909;82;21039;-63
2022/01/12 05:44:42;;;;;;;10.88;4.12;;;;;;;1.13;38.22;100815.91;1702542;82;20980;-74
2022/01/12 05:47:19;;;;;;;10.53;4.45;;;;;;;0.85;38.59;100816.56;1688750;84;21090;-63
2022/01/12 05:49:43;;;;;;;10.78;4.37;;;;;;;0.83;38.88;100822.72;1687851;83;22363;-60
2022/01/12 05:52:10;;;;;;;9.18;4.33;;;;;;;1.14;38.73;100827.37;1653742;85;20999;-63
2022/01/12 05:54:38;;;;;;;8.20;4.53;;;;;;;1.36;38.50;100819.41;1737167;81;21034;-74
2022/01/12 05:57:05;;;;;;;8.30;3.33;;;;;;;1.42;38.37;100825.41;1738310;80;21184;-62
2022/01/12 05:59:35;;;;;;;10.90;4.67;;;;;;;1.37;38.34;100830.88;1739708;80;21060;-63
2022/01/12 06:02:03;;;;;;;8.45;4.20;;;;;;;1.43;38.28;100825.75;1736525;81;21876;-63
2022/01/12 06:04:34;;;;;;;6.37;3.37;;;;;;;1.69;38.29;100829.02;1703360;81;21076;-64
2022/01/12 06:07:02;;;;;;;9.78;4.37;;;;;;;1.83;37.95;100830.12;1723009;82;21344;-61
2022/01/12 06:09:29;;;;;;;9.73;4.58;;;;;;;2.17;37.95;100824.58;1738567;81;20968;-64
2022/01/12 06:11:56;;;;;;;8.73;4.42;;;;;;;2.58;37.80;100828.36;1732828;80;21008;-64
2022/01/12 06:14:22;;;;;;;9.20;4.22;;;;;;;2.74;37.65;100828.47;1740805;80;21132;-68
2022/01/12 06:16:50;;;;;;;6.35;3.33;;;;;;;2.93;37.98;100823.53;1730963;80;21008;-64
2022/01/12 06:19:18;;;;;;;17.20;4.50;;;;;;;3.31;37.54;100832.58;1733559;80;21090;-61
2022/01/12 06:21:47;;;;;;;10.15;5.00;;;;;;;3.53;36.48;100830.40;1736227;80;21034;-63
2022/01/12 06:24:15;;;;;;;11.50;4.85;;;;;;;3.79;36.31;100826.97;1740653;80;21385;-60
2022/01/12 06:26:43;;;;;;;8.18;4.10;;;;;;;4.13;35.90;100829.73;1698542;82;21969;-73
2022/01/12 06:31:47;;;;;;;9.80;5.28;;;;;;;4.68;34.61;100837.66;1684285;84;21035;-60
2022/01/12 06:34:17;;;;;;;10.20;4.50;;;;;;;4.68;33.69;100829.91;1680820;83;21040;-62
2022/01/12 06:36:44;;;;;;;10.60;4.67;;;;;;;5.02;33.13;100832.52;1730432;81;21526;-76
2022/01/12 06:39:14;;;;;;;11.88;5.50;;;;;;;5.02;33.14;100831.23;1728905;80;21582;-66
2022/01/12 06:41:40;;;;;;;6.78;4.20;;;;;;;5.17;33.30;100823.09;1730617;80;21068;-63
2022/01/12 06:44:07;;;;;;;9.53;4.90;;;;;;;5.63;32.91;100821.62;1740473;80;21636;-62
2022/01/12 06:46:35;;;;;;;8.23;4.72;;;;;;;5.74;32.80;100829.23;1739145;80;21094;-70
2022/01/12 06:49:02;;;;;;;9.45;4.65;;;;;;;6.06;32.57;100827.64;1739926;80;21599;-72
2022/01/12 06:51:29;;;;;;;9.48;4.80;;;;;;;6.22;31.89;100827.09;1739185;80;21155;-63
2022/01/12 06:53:58;;;;;;;9.33;4.45;;;;;;;6.29;31.66;100828.16;1737442;82;21025;-62
2022/01/12 06:56:25;;;;;;;9.53;5.35;;;;;;;6.26;31.79;100823.26;1704280;82;21086;-68
2022/01/12 06:58:53;;;;;;;8.88;4.53;;;;;;;6.54;31.28;100820.22;1683829;83;21545;-64
2022/01/12 07:01:24;;;;;;;10.38;5.97;;;;;;;6.84;30.59;100815.23;1739301;80;21552;-66
2022/01/12 07:03:50;;;;;;;8.45;5.65;;;;;;;6.97;30.20;100815.72;1759037;80;21145;-67
2022/01/12 07:06:18;;;;;;;9.83;4.87;;;;;;;7.19;29.41;100815.75;1737972;78;21466;-67
2022/01/12 07:08:45;;;;;;;7.67;4.33;;;;;;;7.44;29.47;100813.41;1739005;80;21041;-69
2022/01/12 07:11:13;;;;;;;7.87;4.62;;;;;;;7.82;28.90;100811.44;1736379;79;21041;-69
2022/01/12 07:13:40;;;;;;;8.58;5.20;;;;;;;7.84;28.70;100811.62;1744396;80;21488;-69
2022/01/12 07:16:08;;;;;;;8.38;5.03;;;;;;;8.01;28.55;100812.05;1733922;80;22133;-70
2022/01/12 07:18:38;;;;;;;7.72;4.60;;;;;;;8.20;28.35;100811.52;1741171;80;20960;-72
2022/01/12 07:21:04;;;;;;;8.50;5.42;;;;;;;8.42;28.05;100816.70;1746972;80;21197;-69
2022/01/12 07:23:31;;;;;;;9.33;5.60;;;;;;;8.78;27.75;100819.92;1740929;80;21066;-70
2022/01/12 07:25:58;;;;;;;10.93;6.83;;;;;;;9.26;27.24;100806.72;1756171;80;21031;-68
2022/01/12 07:28:26;;;;;;;11.57;6.80;;;;;;;9.28;27.16;100816.50;1760571;80;21153;-70
2022/01/12 07:30:53;;;;;;;12.55;6.87;;;;;;;9.62;26.61;100811.15;1758315;79;20940;-73
2022/01/12 07:33:22;;;;;;;11.63;6.67;;;;;;;9.49;26.10;100824.63;1748908;80;21012;-70
2022/01/12 07:35:49;;;;;;;10.38;6.25;;;;;;;9.38;26.03;100821.04;1748642;80;21024;-70
2022/01/12 07:38:15;;;;;;;10.80;6.62;;;;;;;9.56;26.38;100826.59;1749314;80;21076;-70
2022/01/12 07:40:43;;;;;;;12.65;7.62;;;;;;;9.87;25.87;100815.02;1745353;79;21876;-75
2022/01/12 07:43:09;;;;;;;10.53;6.30;;;;;;;9.96;25.64;100808.81;1715841;80;21487;-69
2022/01/12 07:45:38;;;;;;;22.65;11.55;;;;;;;9.91;25.55;100804.60;1739735;80;21016;-68
2022/01/12 07:48:07;;;;;;;16.40;9.55;;;;;;;10.19;25.84;100806.33;1740215;80;21006;-67
2022/01/12 07:50:35;;;;;;;18.32;11.08;;;;;;;10.37;25.55;100794.42;1754048;80;21036;-73
2022/01/12 07:53:01;;;;;;;16.02;10.53;;;;;;;10.70;25.03;100795.91;1738079;80;22192;-74
2022/01/12 07:55:30;;;;;;;9.00;6.03;;;;;;;10.74;24.95;100798.19;1749551;80;21581;-69
2022/01/12 07:57:56;;;;;;;12.53;6.75;;;;;;;10.65;24.43;100803.45;1743110;80;21545;-67
2022/01/12 08:00:23;;;;;;;12.90;7.75;;;;;;;10.79;24.78;100803.70;1744976;80;21102;-65
2022/01/12 08:02:50;;;;;;;9.15;5.80;;;;;;;11.05;24.57;100802.89;1746222;80;21126;-69
2022/01/12 08:07:54;;;;;;;13.20;7.15;;;;;;;11.19;23.78;100798.73;1749476;80;20954;-66
2022/01/12 08:10:21;;;;;;;9.95;6.42;;;;;;;10.89;24.07;100797.28;1739169;80;21046;-66
2022/01/12 08:12:48;;;;;;;9.33;5.08;;;;;;;10.95;24.23;100794.00;1745326;78;21599;-69
2022/01/12 08:15:20;;;;;;;8.68;6.03;;;;;;;10.99;24.37;100797.58;1752859;80;20995;-66
2022/01/12 08:17:47;;;;;;;11.65;6.40;;;;;;;11.08;24.42;100790.01;1745905;79;21136;-69
2022/01/12 08:20:18;;;;;;;8.50;5.58;;;;;;;11.13;24.52;100798.11;1747710;79;21034;-67
2022/01/12 08:22:42;;;;;;;8.60;5.75;;;;;;;11.25;24.37;100792.84;1750619;80;21651;-69
2022/01/12 08:25:12;;;;;;;11.25;7.47;;;;;;;11.55;24.09;100791.61;1740010;80;21170;-69
2022/01/12 08:27:39;;;;;;;9.90;5.70;;;;;;;11.61;23.82;100789.61;1757812;79;21097;-67
2022/01/12 08:30:07;;;;;;;8.40;5.35;;;;;;;11.47;23.87;100789.06;1755121;79;21548;-67
2022/01/12 08:32:33;;;;;;;8.98;5.53;;;;;;;11.48;23.83;100787.61;1741325;80;21038;-68
2022/01/12 08:35:02;;;;;;;9.70;5.97;;;;;;;11.73;23.71;100782.16;1741152;80;21586;-64
2022/01/12 08:37:28;;;;;;;10.23;5.40;;;;;;;11.53;23.83;100783.96;1741001;80;21081;-65
2022/01/12 08:39:57;;;;;;;8.53;4.62;;;;;;;11.54;23.76;100783.47;1737768;80;21506;-68
2022/01/12 08:42:23;;;;;;;9.90;5.30;;;;;;;11.39;23.81;100784.23;1745190;78;21155;-68
2022/01/12 08:44:50;;;;;;;9.68;5.42;;;;;;;11.38;23.86;100774.78;1738316;79;21021;-72
2022/01/12 08:47:18;;;;;;;10.58;6.67;;;;;;;11.61;23.70;100781.28;1729734;80;20989;-69
2022/01/12 08:49:45;;;;;;;10.05;5.28;;;;;;;11.60;23.88;100777.05;1733992;80;21732;-67
2022/01/12 08:52:11;;;;;;;8.18;5.60;;;;;;;11.89;23.52;100771.11;1735095;81;21113;-67
2022/01/12 08:54:38;;;;;;;8.05;5.83;;;;;;;11.89;23.29;100782.86;1734403;80;21131;-67
2022/01/12 08:57:05;;;;;;;11.50;4.87;;;;;;;11.92;23.09;100774.64;1733402;81;20929;-67
2022/01/12 08:59:32;;;;;;;8.10;5.10;;;;;;;11.85;23.11;100774.23;1743466;80;21562;-67
2022/01/12 09:02:00;;;;;;;7.90;5.05;;;;;;;11.79;23.35;100767.90;1718373;80;21550;-67
2022/01/12 09:04:29;;;;;;;8.68;5.25;;;;;;;11.88;23.09;100772.07;1737376;80;21517;-68
2022/01/12 09:06:57;;;;;;;7.35;4.97;;;;;;;11.56;23.06;100773.67;1735088;80;21795;-68
2022/01/12 09:09:25;;;;;;;7.37;4.25;;;;;;;11.38;23.58;100769.56;1738256;80;21063;-70
2022/01/12 09:11:53;;;;;;;8.10;5.47;;;;;;;11.44;23.30;100769.37;1733994;80;21532;-64
2022/01/12 09:14:19;;;;;;;7.55;4.50;;;;;;;11.51;23.54;100774.17;1730032;80;21517;-66
2022/01/12 09:16:55;;;;;;;8.20;4.92;;;;;;;11.92;23.34;100773.33;1731952;80;21541;-63
2022/01/12 09:19:23;;;;;;;9.63;5.17;;;;;;;11.39;23.17;100773.78;1679865;83;21158;-65
2022/01/12 09:21:49;;;;;;;7.10;4.72;;;;;;;11.39;22.99;100774.28;1677101;84;21023;-69
2022/01/12 09:24:17;;;;;;;8.35;4.45;;;;;;;11.20;23.24;100776.87;1683677;82;21593;-72
2022/01/12 09:26:44;;;;;;;11.55;5.53;;;;;;;11.07;23.63;100777.95;1679031;83;21530;-67
2022/01/12 09:29:11;;;;;;;10.08;4.87;;;;;;;11.14;23.49;100780.20;1731087;80;21594;-67
2022/01/12 09:31:37;;;;;;;9.28;5.03;;;;;;;10.80;23.83;100777.95;1735612;81;21122;-69
2022/01/12 09:34:05;;;;;;;12.20;4.95;;;;;;;10.86;23.89;100783.28;1732813;81;21623;-70
2022/01/12 09:36:33;;;;;;;7.80;4.03;;;;;;;10.76;24.18;100777.48;1733875;81;21099;-67
2022/01/12 09:39:08;;;;;;;7.62;4.40;;;;;;;10.91;23.72;100778.38;1736526;81;21046;-69
2022/01/12 09:41:35;;;;;;;7.25;4.50;;;;;;;10.94;23.44;100776.70;1730258;81;21060;-69
2022/01/12 09:44:02;;;;;;;7.20;4.92;;;;;;;10.71;23.50;100774.56;1694614;81;21361;-71
2022/01/12 09:46:30;;;;;;;6.30;4.00;;;;;;;10.55;23.67;100781.97;1730783;80;21531;-66
2022/01/12 09:49:01;;;;;;;9.75;5.05;;;;;;;10.42;23.78;100776.02;1739524;80;22200;-63
2022/01/12 09:51:28;;;;;;;9.45;5.55;;;;;;;10.40;23.68;100781.87;1726250;80;21662;-69
2022/01/12 09:53:54;;;;;;;10.78;5.55;;;;;;;10.32;23.80;100793.63;1738749;80;21133;-66
2022/01/12 09:56:24;;;;;;;8.50;4.45;;;;;;;10.52;23.86;100776.28;1732745;80;21394;-66
2022/01/12 09:58:54;;;;;;;;;;;;;;;9.87;24.26;100774.66;1738573;80;21066;-65
2022/01/12 10:01:31;;;;;;;8.55;4.47;;;;;;;9.70;24.43;100778.59;1737215;80;20225;-69
2022/01/12 10:04:09;;;;;;;8.80;4.87;;;;;;;9.33;24.89;100771.28;1739992;80;21030;-67
2022/01/12 10:06:38;;;;;;;7.35;4.20;;;;;;;9.34;24.52;100774.20;1745591;80;21129;-68
2022/01/12 10:09:07;;;;;;;11.90;6.73;;;;;;;9.78;24.32;100769.97;1752495;80;21850;-66
2022/01/12 10:11:52;;;;;;;7.55;4.78;;;;;;;9.96;24.74;100774.50;1702235;82;20977;-65
2022/01/12 10:14:21;;;;;;;7.40;4.03;;;;;;;9.97;24.83;100770.91;1688622;82;21093;-68
2022/01/12 10:16:57;;;;;;;7.62;4.65;;;;;;;10.22;24.20;100764.31;1695978;82;21107;-69
2022/01/12 10:19:32;;;;;;;6.55;3.90;;;;;;;10.14;24.34;100753.42;1675772;83;21384;-72
2022/01/12 10:22:01;;;;;;;7.15;4.42;;;;;;;10.54;24.25;100761.30;1704878;81;21750;-70
2022/01/12 10:24:28;;;;;;;7.95;4.35;;;;;;;10.62;23.74;100756.85;1727120;80;21042;-67
2022/01/12 10:26:55;;;;;;;7.75;4.80;;;;;;;10.21;24.20;100764.80;1717867;80;21162;-69
2022/01/12 10:29:25;;;;;;;9.40;5.80;;;;;;;9.90;24.05;100762.13;1726026;80;21867;-72
2022/01/12 10:32:02;;;;;;;11.40;4.17;;;;;;;9.81;24.21;100755.32;1726302;80;22294;-71
2022/01/12 10:34:39;;;;;;;9.28;4.55;;;;;;;9.84;24.11;100761.48;1729943;80;21111;-67
2022/01/12 10:37:16;;;;;;;8.83;5.20;;;;;;;9.66;24.56;100756.94;1734526;80;21504;-69
2022/01/12 10:39:46;;;;;;;7.03;4.60;;;;;;;9.77;24.90;100752.70;1746191;80;21575;-70
2022/01/12 10:42:14;;;;;;;9.13;5.42;;;;;;;9.90;24.56;100755.61;1742598;80;20934;-70
2022/01/12 10:44:46;;;;;;;8.18;5.65;;;;;;;9.84;24.69;100752.36;1733447;80;21135;-71
2022/01/12 10:47:16;;;;;;;;;;;;;;;9.69;24.34;100747.02;1729661;80;21849;-69
2022/01/12 10:50:00;;;;;;;8.13;4.75;;;;;;;9.17;24.68;100750.47;1679967;81;20180;-69
2022/01/12 10:52:34;;;;;;;8.35;4.92;;;;;;;9.25;24.56;100743.97;1735447;80;21092;-71
2022/01/12 10:55:10;;;;;;;7.65;4.25;;;;;;;9.07;24.76;100743.30;1743708;80;21169;-68
2022/01/12 10:57:42;;;;;;;7.78;4.72;;;;;;;9.31;25.12;100748.51;1738295;80;21530;-66
2022/01/12 11:00:25;;;;;;;10.72;5.87;;;;;;;9.62;24.96;100742.17;1738468;80;21183;-72
2022/01/12 11:02:58;;;;;;;9.53;5.55;;;;;;;9.73;24.63;100742.30;1748715;80;22717;-65
2022/01/12 11:05:28;;;;;;;7.62;4.42;;;;;;;9.64;24.54;100739.39;1761505;79;21059;-67
2022/01/12 11:07:54;;;;;;;8.05;5.03;;;;;;;9.38;24.79;100741.69;1759674;79;21122;-70
2022/01/12 11:10:25;;;;;;;9.63;4.58;;;;;;;9.38;24.75;100744.77;1756371;79;21057;-67
2022/01/12 11:12:56;;;;;;;8.00;4.65;;;;;;;9.24;24.85;100737.12;1764033;79;21571;-63
2022/01/12 11:15:23;;;;;;;8.63;5.12;;;;;;;9.43;24.82;100743.33;1748280;79;20976;-71
2022/01/12 11:17:51;;;;;;;11.90;5.58;;;;;;;9.00;25.04;100746.53;1753830;80;21072;-65
2022/01/12 11:20:28;;;;;;;8.63;4.78;;;;;;;9.11;25.19;100744.61;1759051;79;21090;-67
2022/01/12 11:23:05;;;;;;;10.08;5.08;;;;;;;9.18;25.13;100748.19;1756825;79;21549;-62
2022/01/12 11:25:45;;;;;;;10.13;5.35;;;;;;;9.11;25.04;100758.42;1752273;79;22355;-70
2022/01/12 11:28:18;;;;;;;;;;;;;;;9.08;25.46;100755.33;1738159;79;21004;-63
2022/01/12 11:30:58;;;;;;;9.55;4.78;;;;;;;9.03;24.96;100760.20;1763108;79;20079;-65
2022/01/12 11:33:42;;;;;;;9.00;5.55;;;;;;;8.82;25.14;100767.95;1754319;79;22464;-65
2022/01/12 11:36:26;;;;;;;10.10;6.28;;;;;;;8.59;25.04;100765.13;1755145;79;21572;-67
2022/01/12 11:39:07;;;;;;;9.15;4.83;;;;;;;8.38;25.54;100763.44;1755434;79;21544;-65
2022/01/12 11:41:35;;;;;;;9.10;4.90;;;;;;;8.44;25.27;100761.00;1761499;79;20936;-64
2022/01/12 11:44:16;;;;;;;10.28;5.50;;;;;;;8.58;25.36;100763.98;1753173;79;21528;-66
2022/01/12 11:46:54;;;;;;;12.45;4.90;;;;;;;8.63;25.13;100768.22;1748067;79;22317;-65
2022/01/12 11:49:35;;;;;;;10.72;5.40;;;;;;;8.52;25.21;100758.46;1751400;79;21070;-62
2022/01/12 11:52:26;;;;;;;12.30;6.25;;;;;;;8.20;25.17;100769.48;1746704;79;21179;-73
2022/01/12 11:55:09;;;;;;;10.60;5.72;;;;;;;8.05;25.46;100765.34;1755593;79;21035;-67
2022/01/12 11:57:38;;;;;;;8.08;5.17;;;;;;;7.78;25.43;100770.70;1758522;79;21038;-70
2022/01/12 12:00:15;;;;;;;8.83;5.28;;;;;;;7.50;25.92;100766.94;1752166;79;21070;-62
2022/01/12 12:02:47;;;;;;;10.20;5.42;;;;;;;7.29;26.00;100772.91;1752259;79;20998;-63
2022/01/12 12:05:22;;;;;;;10.28;5.05;;;;;;;7.14;26.54;100768.73;1739455;80;21807;-75
2022/01/12 12:07:52;;;;;;;9.98;5.25;;;;;;;7.11;26.63;100769.50;1738205;80;21568;-65
2022/01/12 12:10:24;;;;;;;11.97;6.62;;;;;;;7.12;26.61;100773.71;1742869;80;20990;-60
2022/01/12 12:12:54;;;;;;;7.75;4.70;;;;;;;6.94;26.87;100783.61;1745116;80;20931;-62
2022/01/12 12:15:23;;;;;;;7.83;4.15;;;;;;;7.06;26.67;100791.50;1742607;80;21005;-71
2022/01/12 12:17:52;;;;;;;7.65;4.20;;;;;;;6.86;26.72;100789.16;1747180;80;21576;-62
2022/01/12 12:20:20;;;;;;;9.75;4.00;;;;;;;6.72;26.93;100791.78;1745063;80;20940;-63
2022/01/12 12:22:48;;;;;;;7.37;4.20;;;;;;;6.71;26.67;100792.75;1738228;80;21283;-62
2022/01/12 12:25:21;;;;;;;8.43;4.60;;;;;;;6.61;26.72;100794.56;1746437;80;21290;-72
2022/01/12 12:28:00;;;;;;;11.60;5.55;;;;;;;6.55;26.70;100805.00;1744076;80;22356;-63
2022/01/12 12:30:29;;;;;;;11.20;5.42;;;;;;;6.97;26.69;100806.64;1746203;80;21119;-64
2022/01/12 12:33:06;;;;;;;11.57;6.25;;;;;;;6.81;26.66;100805.15;1754121;80;20962;-66
2022/01/12 12:35:34;;;;;;;8.80;5.00;;;;;;;6.93;26.81;100804.02;1751034;80;22121;-68
2022/01/12 12:38:07;;;;;;;10.38;4.92;;;;;;;7.07;26.53;100811.27;1739948;80;21083;-65
2022/01/12 12:40:42;;;;;;;10.40;5.67;;;;;;;6.56;27.06;100809.25;1750774;80;21097;-66
2022/01/12 12:43:20;;;;;;;10.63;4.78;;;;;;;6.78;27.00;100807.57;1744844;80;21373;-63
2022/01/12 12:45:49;;;;;;;6.85;4.42;;;;;;;6.65;26.70;100804.97;1737349;80;21006;-63
2022/01/12 12:48:22;;;;;;;8.08;4.50;;;;;;;6.68;26.82;100812.46;1723210;80;21033;-71
2022/01/12 12:51:00;;;;;;;11.15;6.75;;;;;;;6.60;26.78;100811.08;1693266;82;21064;-64
2022/01/12 12:53:32;;;;;;;10.70;6.17;;;;;;;6.48;27.10;100815.14;1746776;80;20927;-63